Time;durP1;ratioP1;P1;durP2;ratioP2;P2;SDS_P1;SDS_P2;PMS_P1;PMS_P2;Temp;Humidity;BMP_temperature;BMP_pressure;BME280_temperature;BME280_humidity;BME280_pressure;Samples;Min_cycle;Max_cycle;Signal;HPM_P1;HPM_P2
2022/09/03 00:01:49;;;;;;;2.78;1.00;;;15.70;78.50;;;;;;5056414;28;20483;-68
2022/09/03 00:04:39;;;;;;;4.07;1.03;;;15.70;78.50;;;;;;5052310;28;20052;-68
2022/09/03 00:07:18;;;;;;;5.07;1.20;;;15.70;78.60;;;;;;5027741;28;20052;-69
2022/09/03 00:09:52;;;;;;;4.80;1.15;;;15.60;79.20;;;;;;5041810;28;20048;-69
2022/09/03 00:12:25;;;;;;;5.32;1.13;;;15.50;79.50;;;;;;5055010;28;20380;-69
2022/09/03 00:14:59;;;;;;;5.20;1.00;;;15.50;79.20;;;;;;5037204;28;20120;-68
2022/09/03 00:17:31;;;;;;;3.03;1.10;;;15.50;80.10;;;;;;5036653;28;20048;-74
2022/09/03 00:20:06;;;;;;;2.83;1.10;;;15.50;80.40;;;;;;5036773;28;20120;-70
2022/09/03 00:22:43;;;;;;;3.72;1.10;;;15.40;80.90;;;;;;5049205;28;20040;-69
2022/09/03 00:25:13;;;;;;;3.00;1.00;;;15.30;81.40;;;;;;5047515;28;20079;-71
2022/09/03 00:27:42;;;;;;;4.60;1.20;;;15.30;82.00;;;;;;5063706;28;20075;-71
2022/09/03 00:30:14;;;;;;;5.03;1.10;;;15.30;82.00;;;;;;5043392;28;20083;-69
2022/09/03 00:32:45;;;;;;;;;;;15.20;82.30;;;;;;5036947;28;20049;-70
2022/09/03 00:35:31;;;;;;;2.67;1.07;;;15.20;82.70;;;;;;5054088;28;20002;-69
2022/09/03 00:37:58;;;;;;;3.78;1.00;;;15.20;82.90;;;;;;5047259;28;20114;-69
2022/09/03 00:41:01;;;;;;;5.22;0.95;;;15.20;83.00;;;;;;5049671;28;20041;-72
2022/09/03 00:43:45;;;;;;;;;;;15.20;83.00;;;;;;5067903;28;20119;-70
2022/09/03 00:46:50;;;;;;;6.22;1.17;;;15.20;83.20;;;;;;5063056;28;19916;-70
2022/09/03 00:49:53;;;;;;;2.88;1.10;;;15.20;83.70;;;;;;5012050;28;20056;-70
2022/09/03 00:52:34;;;;;;;3.75;1.10;;;15.20;83.70;;;;;;5067894;28;20387;-68
2022/09/03 00:55:06;;;;;;;4.93;1.00;;;15.20;84.20;;;;;;5049221;28;20063;-69
2022/09/03 00:57:40;;;;;;;3.33;1.20;;;15.10;84.30;;;;;;5035270;28;20096;-69
2022/09/03 01:00:13;;;;;;;3.50;1.00;;;15.00;84.40;;;;;;5060274;28;20044;-69
2022/09/03 01:03:10;;;;;;;7.35;1.30;;;15.00;84.40;;;;;;5043184;28;20498;-68
2022/09/03 01:06:02;;;;;;;2.60;0.90;;;15.00;85.20;;;;;;5015306;23;1103058;-75
2022/09/03 01:08:31;;;;;;;;;;;15.00;85.80;;;;;;5017147;28;20512;-76
2022/09/03 01:11:26;;;;;;;4.15;1.10;;;14.90;86.20;;;;;;5066577;23;19924;-69
2022/09/03 01:14:09;;;;;;;4.20;1.05;;;14.90;86.10;;;;;;5061928;28;20044;-69
2022/09/03 01:17:01;;;;;;;5.28;1.08;;;15.00;85.90;;;;;;5065142;28;20052;-71
2022/09/03 01:20:01;;;;;;;2.92;1.00;;;15.00;86.50;;;;;;5074360;28;20051;-69
2022/09/03 01:22:51;;;;;;;3.05;1.10;;;15.00;86.30;;;;;;5061933;28;20055;-69
2022/09/03 01:25:56;;;;;;;3.47;1.10;;;15.00;86.00;;;;;;5059963;28;20506;-69
2022/09/03 01:28:21;;;;;;;5.00;1.13;;;15.00;86.60;;;;;;5089663;28;20090;-69
2022/09/03 01:31:11;;;;;;;4.50;1.20;;;15.00;86.50;;;;;;5065540;28;20063;-69
2022/09/03 01:33:41;;;;;;;4.03;1.00;;;15.00;86.90;;;;;;5046118;28;20048;-69
2022/09/03 01:36:15;;;;;;;4.63;1.30;;;15.00;87.10;;;;;;5050675;28;20368;-70
2022/09/03 01:38:50;;;;;;;2.70;0.90;;;15.00;86.90;;;;;;5061887;28;20395;-69
2022/09/03 01:44:36;;;;;;;4.65;1.00;;;15.10;86.80;;;;;;5068052;28;20056;-71
2022/09/03 01:47:21;;;;;;;2.53;1.00;;;15.10;86.70;;;;;;5069707;28;20059;-70
2022/09/03 01:50:03;;;;;;;4.18;0.98;;;15.10;86.90;;;;;;5056342;28;20103;-73
2022/09/03 01:52:49;;;;;;;3.90;1.10;;;15.10;86.80;;;;;;5054746;28;20052;-70
2022/09/03 01:55:31;;;;;;;4.32;1.10;;;15.10;86.30;;;;;;5056017;28;20056;-69
2022/09/03 01:58:20;;;;;;;5.28;1.20;;;15.20;86.70;;;;;;5059255;28;20056;-69
2022/09/03 02:00:55;;;;;;;2.97;0.80;;;15.20;86.60;;;;;;5056125;28;20456;-72
2022/09/03 02:03:23;;;;;;;4.28;1.10;;;15.20;86.60;;;;;;5043055;28;20432;-69
2022/09/03 02:05:51;;;;;;;3.63;1.02;;;15.20;86.60;;;;;;5073430;28;20101;-74
2022/09/03 02:08:19;;;;;;;3.70;1.08;;;15.30;87.00;;;;;;5072873;28;20045;-70
2022/09/03 02:10:52;;;;;;;2.95;0.93;;;15.30;86.60;;;;;;5052444;28;20052;-71
2022/09/03 02:13:23;;;;;;;2.95;1.00;;;15.30;86.70;;;;;;5072233;28;20056;-70
2022/09/03 02:15:51;;;;;;;3.92;1.10;;;15.30;86.30;;;;;;5056129;28;20052;-70
2022/09/03 02:18:24;;;;;;;4.13;1.10;;;15.30;86.40;;;;;;5073623;28;20097;-73
2022/09/03 02:20:53;;;;;;;4.65;1.00;;;15.30;86.20;;;;;;5073247;28;20051;-71
2022/09/03 02:23:19;;;;;;;3.13;1.00;;;15.30;86.30;;;;;;5053177;28;20060;-68
2022/09/03 02:25:50;;;;;;;4.78;1.10;;;15.30;86.60;;;;;;5055197;28;20169;-68
2022/09/03 02:28:16;;;;;;;4.90;1.17;;;15.30;87.20;;;;;;5055136;28;20059;-70
2022/09/03 02:30:42;;;;;;;3.95;1.05;;;15.30;86.10;;;;;;5086571;28;20048;-69
2022/09/03 02:33:08;;;;;;;4.90;1.10;;;15.30;86.20;;;;;;5072502;28;20490;-69
2022/09/03 02:35:34;;;;;;;3.10;1.20;;;15.30;86.80;;;;;;5055351;28;20044;-71
2022/09/03 02:38:24;;;;;;;4.43;1.00;;;15.40;86.10;;;;;;5072612;28;20053;-68
2022/09/03 02:40:50;;;;;;;2.83;1.00;;;15.30;86.30;;;;;;5059944;28;20041;-71
2022/09/03 02:43:26;;;;;;;6.15;1.20;;;15.30;86.50;;;;;;5053037;28;20059;-69
2022/09/03 02:45:58;;;;;;;3.28;1.00;;;15.20;86.50;;;;;;5040800;28;20051;-69
2022/09/03 02:48:24;;;;;;;3.28;1.00;;;15.20;86.40;;;;;;5062441;28;20384;-69
2022/09/03 02:50:50;;;;;;;4.78;1.30;;;15.20;86.20;;;;;;5054532;28;20090;-71
2022/09/03 02:53:15;;;;;;;3.83;1.00;;;15.20;85.90;;;;;;5054774;28;20190;-71
2022/09/03 02:55:41;;;;;;;4.05;1.20;;;15.30;86.00;;;;;;5057095;28;20436;-71
2022/09/03 02:58:07;;;;;;;3.10;1.20;;;15.30;86.20;;;;;;5083888;28;20122;-68
2022/09/03 03:00:37;;;;;;;2.72;0.93;;;15.20;86.40;;;;;;5054233;28;20102;-69
2022/09/03 03:03:04;;;;;;;4.13;1.10;;;15.20;86.70;;;;;;5054897;28;20132;-71
2022/09/03 03:05:47;;;;;;;3.20;1.15;;;15.30;86.60;;;;;;5054447;28;20052;-74
2022/09/03 03:08:20;;;;;;;2.78;1.00;;;15.20;86.40;;;;;;5034224;28;20055;-72
2022/09/03 03:10:48;;;;;;;3.42;1.20;;;15.20;86.60;;;;;;5032105;28;20056;-71
2022/09/03 03:13:15;;;;;;;5.25;1.13;;;15.20;86.90;;;;;;5047400;28;20186;-71
2022/09/03 03:15:41;;;;;;;4.47;1.20;;;15.20;87.20;;;;;;5035302;28;20057;-70
2022/09/03 03:18:10;;;;;;;4.50;1.20;;;15.10;86.90;;;;;;5070598;28;20044;-68
2022/09/03 03:20:40;;;;;;;3.90;1.00;;;15.10;87.20;;;;;;5045718;28;20056;-69
2022/09/03 03:23:06;;;;;;;3.17;1.00;;;15.20;87.00;;;;;;5071467;28;20049;-69
2022/09/03 03:25:34;;;;;;;2.83;1.05;;;15.10;87.70;;;;;;5021869;28;20060;-69
2022/09/03 03:28:00;;;;;;;2.75;1.10;;;15.10;87.60;;;;;;5054024;28;20052;-70
2022/09/03 03:30:26;;;;;;;4.97;1.30;;;15.20;87.20;;;;;;5072737;28;20174;-69
2022/09/03 03:32:52;;;;;;;3.63;1.10;;;15.10;87.90;;;;;;5054636;28;20110;-71
2022/09/03 03:35:18;;;;;;;3.42;1.10;;;15.10;87.60;;;;;;5078167;28;20057;-70
2022/09/03 03:37:44;;;;;;;3.03;1.20;;;15.10;87.60;;;;;;5079528;28;20403;-69
2022/09/03 03:40:10;;;;;;;2.97;1.20;;;15.10;88.90;;;;;;5053950;28;20047;-70
2022/09/03 03:42:36;;;;;;;5.95;1.30;;;15.10;88.10;;;;;;5054468;28;20056;-70
2022/09/03 03:45:02;;;;;;;5.55;1.25;;;15.10;88.60;;;;;;5057585;28;20045;-70
2022/09/03 03:47:31;;;;;;;3.33;1.10;;;15.10;88.30;;;;;;5038049;28;20475;-71
2022/09/03 03:49:57;;;;;;;4.55;1.30;;;15.10;88.50;;;;;;5072140;28;20041;-71
2022/09/03 03:52:24;;;;;;;4.47;1.20;;;15.00;88.10;;;;;;5066472;28;20079;-70
2022/09/03 03:54:51;;;;;;;3.75;1.25;;;15.00;88.50;;;;;;5054640;28;20060;-71
2022/09/03 03:57:20;;;;;;;4.72;1.45;;;15.00;88.40;;;;;;5053845;28;20033;-74
2022/09/03 03:59:46;;;;;;;4.95;1.20;;;15.00;88.80;;;;;;5034555;28;20053;-71
2022/09/03 04:02:13;;;;;;;4.43;1.40;;;15.00;89.10;;;;;;5054558;28;20040;-69
2022/09/03 04:04:39;;;;;;;4.88;1.48;;;14.90;89.60;;;;;;5057601;28;20450;-72
2022/09/03 04:07:05;;;;;;;4.07;1.40;;;14.90;89.90;;;;;;5042853;28;20053;-69
2022/09/03 04:09:31;;;;;;;3.15;1.20;;;14.80;89.80;;;;;;5057719;28;20368;-70
2022/09/03 04:11:57;;;;;;;4.43;1.30;;;14.80;90.00;;;;;;5075680;28;20052;-69
2022/09/03 04:14:23;;;;;;;4.47;1.35;;;14.80;90.30;;;;;;5089611;28;20036;-70
2022/09/03 04:16:49;;;;;;;4.28;1.30;;;14.70;90.10;;;;;;5052194;28;20070;-70
2022/09/03 04:19:16;;;;;;;4.28;1.38;;;14.70;90.30;;;;;;5077415;28;20047;-71
2022/09/03 04:21:42;;;;;;;3.08;1.20;;;14.70;90.30;;;;;;5056781;28;20044;-73
2022/09/03 04:24:07;;;;;;;4.65;1.40;;;14.70;90.40;;;;;;5074258;28;20050;-73
2022/09/03 04:26:34;;;;;;;4.72;1.35;;;14.70;90.40;;;;;;5075120;28;20044;-71
2022/09/03 04:29:03;;;;;;;4.72;1.35;;;14.60;90.60;;;;;;5054493;28;20103;-70
2022/09/03 04:31:29;;;;;;;5.22;1.30;;;14.60;90.60;;;;;;5045794;28;20072;-74
2022/09/03 04:33:55;;;;;;;3.55;1.40;;;14.60;90.90;;;;;;5057592;28;20114;-70
2022/09/03 04:36:24;;;;;;;4.15;1.48;;;14.60;91.00;;;;;;5074213;28;20476;-70
2022/09/03 04:38:53;;;;;;;5.22;1.60;;;14.50;91.00;;;;;;5037230;28;20052;-71
2022/09/03 04:41:23;;;;;;;3.67;1.20;;;14.60;91.20;;;;;;5043938;28;20044;-69
2022/09/03 04:43:51;;;;;;;4.40;1.48;;;14.50;91.20;;;;;;5051094;28;20084;-69
2022/09/03 04:46:17;;;;;;;4.00;1.40;;;14.40;91.30;;;;;;5069809;28;20044;-69
2022/09/03 04:48:46;;;;;;;4.93;1.40;;;14.50;91.60;;;;;;5075780;28;20045;-72
2022/09/03 04:51:14;;;;;;;3.83;1.40;;;14.40;91.70;;;;;;5053256;28;20049;-71
2022/09/03 04:53:45;;;;;;;4.70;1.50;;;14.40;91.70;;;;;;5033063;28;20045;-72
2022/09/03 04:56:17;;;;;;;5.60;1.58;;;14.30;91.80;;;;;;5037006;28;20080;-74
2022/09/03 04:58:43;;;;;;;;;;;14.30;92.20;;;;;;5070644;28;20048;-72
2022/09/03 05:01:20;;;;;;;3.60;1.30;;;14.30;92.20;;;;;;5065114;28;19920;-74
2022/09/03 05:03:47;;;;;;;4.10;1.70;;;14.20;92.50;;;;;;5046557;28;20053;-73
2022/09/03 05:06:15;;;;;;;3.60;1.40;;;14.30;92.80;;;;;;5039672;28;20048;-72
2022/09/03 05:08:43;;;;;;;4.35;1.40;;;14.30;92.80;;;;;;5039020;28;20044;-73
2022/09/03 05:11:09;;;;;;;5.18;1.67;;;14.20;93.00;;;;;;5063311;28;20510;-69
2022/09/03 05:13:38;;;;;;;5.65;1.58;;;14.30;93.00;;;;;;5066497;28;20045;-73
2022/09/03 05:16:07;;;;;;;5.05;1.58;;;14.20;93.10;;;;;;5070500;28;20403;-69
2022/09/03 05:18:36;;;;;;;4.25;1.40;;;14.30;93.40;;;;;;5039621;28;20146;-72
2022/09/03 05:21:05;;;;;;;4.63;1.63;;;14.30;93.20;;;;;;5030846;28;20119;-72
2022/09/03 05:23:31;;;;;;;5.90;1.55;;;14.30;93.30;;;;;;5043842;28;20059;-70
2022/09/03 05:25:58;;;;;;;4.10;1.60;;;14.40;93.60;;;;;;5038715;28;20057;-73
2022/09/03 05:28:26;;;;;;;4.40;1.60;;;14.40;93.40;;;;;;5069730;28;20060;-71
2022/09/03 05:31:12;;;;;;;3.03;1.30;;;14.60;93.30;;;;;;5052904;28;20075;-70
2022/09/03 05:33:41;;;;;;;3.40;1.40;;;14.50;93.50;;;;;;5048203;28;20048;-70
2022/09/03 05:36:12;;;;;;;4.10;1.60;;;14.60;93.60;;;;;;5056285;28;20056;-71
2022/09/03 05:38:39;;;;;;;4.63;1.60;;;14.50;94.00;;;;;;5054489;28;20041;-72
2022/09/03 05:41:07;;;;;;;6.32;1.70;;;14.60;93.70;;;;;;5056259;28;20052;-70
2022/09/03 05:43:33;;;;;;;5.60;1.70;;;14.70;93.60;;;;;;5035398;28;20033;-70
2022/09/03 05:46:01;;;;;;;4.75;1.80;;;14.70;93.40;;;;;;5046326;28;20747;-71
2022/09/03 05:48:29;;;;;;;4.57;1.60;;;14.70;93.60;;;;;;5055584;28;20101;-71
2022/09/03 05:51:02;;;;;;;5.03;1.73;;;14.70;93.70;;;;;;5072869;28;20044;-69
2022/09/03 05:53:29;;;;;;;4.60;1.50;;;14.70;93.50;;;;;;5035784;28;20476;-69
2022/09/03 05:56:00;;;;;;;4.28;1.67;;;14.70;93.60;;;;;;5055761;28;20480;-71
2022/09/03 05:58:31;;;;;;;6.13;1.63;;;14.70;93.70;;;;;;5051260;28;20127;-72
2022/09/03 06:00:57;;;;;;;4.55;1.40;;;14.80;93.70;;;;;;5072486;28;20097;-73
2022/09/03 06:03:22;;;;;;;5.15;1.65;;;14.80;93.70;;;;;;5054802;28;20044;-71
2022/09/03 06:05:53;;;;;;;6.65;1.70;;;15.00;93.40;;;;;;5073383;28;20116;-72
2022/09/03 06:08:22;;;;;;;4.05;1.60;;;15.00;93.20;;;;;;5073093;28;20054;-71
2022/09/03 06:10:47;;;;;;;6.43;1.80;;;15.00;93.60;;;;;;5052197;28;20404;-70
2022/09/03 06:13:13;;;;;;;6.20;1.70;;;15.00;93.30;;;;;;5038645;28;20071;-71
2022/09/03 06:15:39;;;;;;;5.15;1.90;;;15.00;93.40;;;;;;5028107;28;20076;-68
2022/09/03 06:18:05;;;;;;;3.83;1.50;;;15.00;93.40;;;;;;5051496;28;20098;-71
2022/09/03 06:20:31;;;;;;;3.90;1.60;;;15.00;93.60;;;;;;5052354;28;20037;-70
2022/09/03 06:22:57;;;;;;;5.47;1.70;;;15.00;93.70;;;;;;5052868;28;20503;-72
2022/09/03 06:25:23;;;;;;;6.97;1.70;;;15.10;93.60;;;;;;5053116;28;20467;-69
2022/09/03 06:27:49;;;;;;;4.90;1.58;;;15.30;93.40;;;;;;5070185;28;20048;-70
2022/09/03 06:30:16;;;;;;;5.25;1.60;;;15.40;92.90;;;;;;5029337;28;20048;-71
2022/09/03 06:32:51;;;;;;;4.97;1.80;;;15.70;92.60;;;;;;5033433;28;20266;-71
2022/09/03 06:35:17;;;;;;;4.50;1.70;;;15.70;92.20;;;;;;5069407;28;20133;-72
2022/09/03 06:37:43;;;;;;;4.70;1.60;;;16.00;92.10;;;;;;5031361;28;20137;-70
2022/09/03 06:40:12;;;;;;;7.43;1.90;;;16.70;93.00;;;;;;5079992;28;20044;-70
2022/09/03 06:42:40;;;;;;;4.68;1.77;;;16.80;90.30;;;;;;5056667;28;20468;-71
2022/09/03 06:45:07;;;;;;;6.38;1.50;;;16.90;90.10;;;;;;5061827;28;20590;-70
2022/09/03 06:47:33;;;;;;;5.13;1.63;;;17.50;90.60;;;;;;5045418;28;20097;-69
2022/09/03 06:50:00;;;;;;;5.90;1.90;;;18.20;86.90;;;;;;5079669;28;20091;-70
2022/09/03 06:52:27;;;;;;;4.00;1.60;;;18.20;84.10;;;;;;5079537;28;20052;-69
2022/09/03 06:54:53;;;;;;;5.28;1.60;;;18.20;82.20;;;;;;5060145;28;20048;-73
2022/09/03 06:57:19;;;;;;;5.00;1.50;;;18.20;82.00;;;;;;5062326;28;20048;-69
2022/09/03 06:59:44;;;;;;;4.20;1.67;;;18.20;84.10;;;;;;5080646;28;20032;-70
2022/09/03 07:02:10;;;;;;;5.80;1.70;;;18.20;82.30;;;;;;5052260;28;20095;-72
2022/09/03 07:04:36;;;;;;;5.97;1.77;;;18.50;82.30;;;;;;5057807;28;20047;-71
2022/09/03 07:07:02;;;;;;;4.38;1.50;;;18.70;80.00;;;;;;5053697;28;20052;-71
2022/09/03 07:09:28;;;;;;;5.95;1.80;;;18.70;78.20;;;;;;5050107;23;20051;-75
2022/09/03 07:11:54;;;;;;;4.57;1.58;;;18.60;78.00;;;;;;5037434;28;20033;-75
2022/09/03 07:14:21;;;;;;;4.40;1.42;;;19.00;78.70;;;;;;5032377;28;20365;-75
2022/09/03 07:16:48;;;;;;;5.28;1.70;;;19.00;78.50;;;;;;5032889;28;20037;-75
2022/09/03 07:19:15;;;;;;;4.65;1.50;;;18.90;78.90;;;;;;5033275;28;20178;-79
2022/09/03 07:21:41;;;;;;;5.10;1.50;;;19.60;78.50;;;;;;5038160;28;20406;-75
2022/09/03 07:24:08;;;;;;;4.53;1.45;;;20.20;77.10;;;;;;5034272;28;20033;-75
2022/09/03 07:26:36;;;;;;;4.93;1.38;;;20.50;72.40;;;;;;5043509;28;20090;-75
2022/09/03 07:29:03;;;;;;;6.85;1.50;;;20.90;71.50;;;;;;5050460;28;20112;-75
2022/09/03 07:31:32;;;;;;;5.22;1.30;;;20.50;69.40;;;;;;5033748;28;20102;-76
2022/09/03 07:33:59;;;;;;;5.20;1.50;;;20.80;69.00;;;;;;5034002;28;20116;-75
2022/09/03 07:36:28;;;;;;;4.05;1.40;;;20.60;69.20;;;;;;5035543;28;20044;-75
2022/09/03 07:38:56;;;;;;;3.92;1.42;;;20.50;68.00;;;;;;5038107;28;20644;-76
2022/09/03 07:41:23;;;;;;;11.00;1.90;;;20.60;68.20;;;;;;5031248;28;20053;-76
2022/09/03 07:43:49;;;;;;;5.55;1.50;;;20.40;66.80;;;;;;5038388;28;20500;-75
2022/09/03 07:46:23;;;;;;;5.25;1.33;;;20.30;67.90;;;;;;5036516;28;20044;-76
2022/09/03 07:48:49;;;;;;;3.35;1.40;;;20.30;69.20;;;;;;5036473;28;20124;-75
2022/09/03 07:51:19;;;;;;;4.15;1.30;;;20.50;66.40;;;;;;5021754;28;20124;-77
2022/09/03 07:53:46;;;;;;;5.05;1.40;;;20.60;66.70;;;;;;5041070;28;20048;-76
2022/09/03 07:56:12;;;;;;;4.40;1.40;;;20.80;67.00;;;;;;5029959;28;20516;-76
2022/09/03 07:58:40;;;;;;;5.18;1.40;;;20.90;67.50;;;;;;5036254;28;20037;-76
2022/09/03 08:01:11;;;;;;;7.47;1.60;;;21.00;65.40;;;;;;5027974;28;20103;-76
2022/09/03 08:03:41;;;;;;;3.63;1.23;;;21.30;65.20;;;;;;5023361;28;20069;-76
2022/09/03 08:06:08;;;;;;;5.97;1.60;;;21.70;64.40;;;;;;5033398;28;20044;-76
2022/09/03 08:08:36;;;;;;;4.85;1.20;;;21.40;62.40;;;;;;5036216;28;20104;-77
2022/09/03 08:11:16;;;;;;;5.18;1.38;;;21.60;63.50;;;;;;5029330;28;20056;-76
2022/09/03 08:13:48;;;;;;;5.38;1.30;;;21.60;62.90;;;;;;5037183;28;20079;-76
2022/09/03 08:16:17;;;;;;;5.13;1.58;;;21.50;62.10;;;;;;5037400;28;20495;-76
2022/09/03 08:18:43;;;;;;;5.45;1.20;;;21.60;60.50;;;;;;5036930;28;20107;-76
2022/09/03 08:21:14;;;;;;;3.90;1.30;;;21.20;61.10;;;;;;5020084;28;20032;-77
2022/09/03 08:23:51;;;;;;;6.13;1.23;;;21.10;61.10;;;;;;5036761;28;20033;-77
2022/09/03 08:26:18;;;;;;;4.00;1.25;;;21.10;62.40;;;;;;5037317;28;20442;-77
2022/09/03 08:28:44;;;;;;;4.35;1.40;;;21.40;62.40;;;;;;5021020;28;20120;-76
2022/09/03 08:31:14;;;;;;;5.22;1.33;;;21.30;61.30;;;;;;5037557;28;20124;-77
2022/09/03 08:33:51;;;;;;;5.00;1.40;;;21.60;62.10;;;;;;5044505;28;20418;-77
2022/09/03 08:36:21;;;;;;;5.13;1.40;;;21.70;59.00;;;;;;5042906;28;20041;-77
2022/09/03 08:38:47;;;;;;;5.13;1.40;;;21.80;60.30;;;;;;5036733;28;20056;-76
2022/09/03 08:41:21;;;;;;;4.53;1.30;;;22.10;60.10;;;;;;5037066;28;20098;-76
2022/09/03 08:44:04;;;;;;;4.25;1.30;;;22.10;57.90;;;;;;5007093;28;20075;-77
2022/09/03 08:47:31;;;;;;;5.57;1.30;;;22.10;58.60;;;;;;5020711;28;20511;-77
2022/09/03 08:50:06;;;;;;;4.38;1.40;;;22.50;58.10;;;;;;4963506;28;20137;-77
2022/09/03 08:52:41;;;;;;;6.47;1.30;;;22.80;58.00;;;;;;4957602;28;20497;-77
2022/09/03 08:55:16;;;;;;;5.22;1.30;;;23.00;56.00;;;;;;4979712;28;20053;-77
2022/09/03 08:58:09;;;;;;;3.40;1.20;;;22.90;55.10;;;;;;5037129;28;20043;-77
2022/09/03 09:01:00;;;;;;;4.63;1.23;;;23.10;56.10;;;;;;5027832;28;20091;-77
2022/09/03 09:03:44;;;;;;;5.93;1.23;;;22.70;55.80;;;;;;5020323;28;20045;-77
2022/09/03 09:06:22;;;;;;;4.65;1.35;;;22.90;55.90;;;;;;5036775;28;20045;-76
2022/09/03 09:08:47;;;;;;;4.40;1.33;;;22.80;55.20;;;;;;5014378;28;20492;-77
2022/09/03 09:11:33;;;;;;;4.10;1.30;;;22.90;55.70;;;;;;4995460;28;20048;-77
2022/09/03 09:14:10;;;;;;;7.05;1.38;;;23.10;54.90;;;;;;5016483;28;20099;-77
2022/09/03 09:16:44;;;;;;;4.03;1.30;;;23.20;54.30;;;;;;5017169;28;20123;-77
2022/09/03 09:19:37;;;;;;;4.85;1.25;;;23.60;54.50;;;;;;5016172;28;20041;-77
2022/09/03 09:22:18;;;;;;;4.38;1.17;;;23.80;53.00;;;;;;5016387;28;20112;-77
2022/09/03 09:24:46;;;;;;;5.50;1.50;;;24.20;53.80;;;;;;5015237;28;20045;-77
2022/09/03 09:27:16;;;;;;;4.13;1.23;;;24.10;51.80;;;;;;5016596;28;20072;-76
2022/09/03 09:29:46;;;;;;;4.00;1.20;;;24.30;51.90;;;;;;5016263;28;20052;-77
2022/09/03 09:32:15;;;;;;;6.07;1.30;;;24.30;51.80;;;;;;5007677;28;20056;-77
2022/09/03 09:34:41;;;;;;;4.28;1.20;;;24.10;50.30;;;;;;5020968;28;20055;-77
2022/09/03 09:37:12;;;;;;;3.15;1.10;;;23.90;51.50;;;;;;5016051;28;20136;-76
2022/09/03 09:39:40;;;;;;;5.97;1.20;;;24.00;50.90;;;;;;5016320;28;20042;-76
2022/09/03 09:42:10;;;;;;;5.70;1.30;;;24.30;51.30;;;;;;4987076;28;20044;-76
2022/09/03 09:44:41;;;;;;;6.57;1.33;;;24.20;50.10;;;;;;5016318;28;20045;-76
2022/09/03 09:47:12;;;;;;;3.75;1.30;;;24.30;50.20;;;;;;5016128;28;20492;-77
2022/09/03 09:49:51;;;;;;;5.33;1.40;;;24.20;50.20;;;;;;5016153;28;20496;-77
2022/09/03 09:52:17;;;;;;;5.80;1.30;;;24.40;50.70;;;;;;5031951;28;20678;-77
2022/09/03 09:54:47;;;;;;;5.65;1.30;;;24.80;50.10;;;;;;5016083;28;20488;-77
2022/09/03 09:57:21;;;;;;;4.95;1.30;;;24.80;48.50;;;;;;5001690;28;20488;-76
2022/09/03 09:59:48;;;;;;;4.35;1.40;;;25.10;47.80;;;;;;5016357;28;20565;-77
2022/09/03 10:02:27;;;;;;;5.63;1.45;;;25.20;47.10;;;;;;5023681;28;20029;-77
2022/09/03 10:05:18;;;;;;;3.92;1.20;;;25.40;47.70;;;;;;5016329;28;20511;-77
2022/09/03 10:07:56;;;;;;;5.55;1.30;;;25.50;47.00;;;;;;5030932;28;20073;-77
2022/09/03 10:10:24;;;;;;;3.72;1.10;;;25.40;47.20;;;;;;5010949;28;20508;-77
2022/09/03 10:12:57;;;;;;;4.28;1.30;;;25.50;46.20;;;;;;5014093;28;20116;-77
2022/09/03 10:15:36;;;;;;;6.28;1.25;;;25.80;45.90;;;;;;5016150;28;20512;-77
2022/09/03 10:18:06;;;;;;;4.35;1.20;;;25.70;44.60;;;;;;5015791;28;20499;-77
2022/09/03 10:20:43;;;;;;;4.75;1.30;;;26.00;45.80;;;;;;5015612;28;20104;-77
2022/09/03 10:23:17;;;;;;;5.75;1.20;;;26.20;44.60;;;;;;5013426;28;20039;-77
2022/09/03 10:26:09;;;;;;;5.53;1.30;;;26.30;43.70;;;;;;5007640;28;20033;-77
2022/09/03 10:28:38;;;;;;;;;;;26.20;43.50;;;;;;5015516;28;20061;-77
2022/09/03 10:31:35;;;;;;;4.80;1.25;;;26.00;42.60;;;;;;5015651;28;19917;-77
2022/09/03 10:34:32;;;;;;;4.80;1.30;;;26.00;42.00;;;;;;5021578;28;20050;-77
2022/09/03 10:37:21;;;;;;;6.53;1.10;;;25.60;41.70;;;;;;5009522;28;20045;-77
2022/09/03 10:39:57;;;;;;;3.83;1.13;;;26.00;42.00;;;;;;5029542;28;20124;-76
2022/09/03 10:42:45;;;;;;;5.80;1.58;;;26.00;42.40;;;;;;5019045;28;20041;-77
2022/09/03 10:45:41;;;;;;;3.85;1.20;;;25.90;41.70;;;;;;5014653;28;20043;-77
2022/09/03 10:48:28;;;;;;;4.80;1.25;;;26.20;42.60;;;;;;5015122;28;20033;-77
2022/09/03 10:51:15;;;;;;;4.57;1.40;;;26.30;41.70;;;;;;5019403;28;20041;-77
2022/09/03 10:54:19;;;;;;;7.15;1.10;;;26.30;41.80;;;;;;5014682;28;20547;-76
2022/09/03 10:57:06;;;;;;;7.80;1.30;;;26.40;40.00;;;;;;5001474;28;20046;-76
2022/09/03 11:00:09;;;;;;;6.05;1.25;;;26.00;40.60;;;;;;5004080;28;20127;-77
2022/09/03 11:03:13;;;;;;;8.75;1.60;;;26.40;40.90;;;;;;5014542;28;20132;-76
2022/09/03 11:05:50;;;;;;;4.05;1.20;;;26.60;41.00;;;;;;5014562;28;20038;-77
2022/09/03 11:08:27;;;;;;;4.93;1.27;;;26.40;39.70;;;;;;5014376;28;20137;-77
2022/09/03 11:11:08;;;;;;;4.15;1.02;;;26.40;40.00;;;;;;5010694;28;20042;-77
2022/09/03 11:13:58;;;;;;;6.25;1.23;;;26.40;40.00;;;;;;5017914;28;20045;-77
2022/09/03 11:16:37;;;;;;;3.90;1.30;;;26.60;39.00;;;;;;5013344;28;20056;-76
2022/09/03 11:19:10;;;;;;;4.22;1.30;;;26.60;39.40;;;;;;5014126;28;20045;-77
2022/09/03 11:21:40;;;;;;;4.05;1.00;;;26.40;39.30;;;;;;5016924;28;20400;-76
2022/09/03 11:24:22;;;;;;;4.35;1.20;;;26.50;38.30;;;;;;5007562;28;20045;-77
2022/09/03 11:27:11;;;;;;;4.60;1.10;;;26.60;39.20;;;;;;5012954;28;20091;-77
2022/09/03 11:30:13;;;;;;;5.35;1.35;;;26.70;37.70;;;;;;5019006;28;20423;-76
2022/09/03 11:32:39;;;;;;;3.45;1.10;;;26.70;38.80;;;;;;5023833;28;20500;-77
2022/09/03 11:35:22;;;;;;;4.88;1.25;;;26.90;39.30;;;;;;5002242;28;20586;-77
2022/09/03 11:37:57;;;;;;;5.00;1.30;;;27.10;39.40;;;;;;5018312;28;20049;-76
2022/09/03 11:40:33;;;;;;;4.55;1.08;;;27.20;38.20;;;;;;5018344;28;20100;-77
2022/09/03 11:43:26;;;;;;;4.22;1.20;;;27.20;38.20;;;;;;5018280;28;20040;-77
2022/09/03 11:46:01;;;;;;;4.88;1.20;;;27.30;37.70;;;;;;5009002;28;20396;-77
2022/09/03 11:48:39;;;;;;;4.80;1.10;;;27.30;36.60;;;;;;5018386;28;20038;-77
2022/09/03 11:51:19;;;;;;;3.70;1.10;;;26.70;36.10;;;;;;5018406;28;20039;-77
2022/09/03 11:54:19;;;;;;;4.80;1.33;;;26.90;38.00;;;;;;5017988;28;20056;-77
2022/09/03 11:56:48;;;;;;;5.53;1.15;;;26.70;36.20;;;;;;5020271;28;20080;-76
2022/09/03 11:59:17;;;;;;;3.63;1.20;;;26.80;37.40;;;;;;5006459;28;20515;-76
2022/09/03 12:01:51;;;;;;;4.80;1.10;;;26.90;36.80;;;;;;5018412;28;20045;-76
2022/09/03 12:04:20;;;;;;;5.57;1.30;;;27.00;37.20;;;;;;5018209;28;20037;-76
2022/09/03 12:07:27;;;;;;;4.85;1.10;;;27.00;36.50;;;;;;5007875;28;20485;-77
2022/09/03 12:10:08;;;;;;;6.22;1.27;;;27.00;36.10;;;;;;5030532;28;20472;-77
2022/09/03 12:12:40;;;;;;;6.20;1.27;;;27.10;35.60;;;;;;5037965;28;20079;-77
2022/09/03 12:15:39;;;;;;;5.05;1.20;;;26.90;35.80;;;;;;5037495;28;20295;-77
2022/09/03 12:18:33;;;;;;;4.75;1.17;;;26.80;35.70;;;;;;5030850;28;20048;-77
2022/09/03 12:21:02;;;;;;;3.92;1.27;;;26.70;36.30;;;;;;5023056;28;20041;-77
2022/09/03 12:23:34;;;;;;;4.10;1.30;;;26.70;36.60;;;;;;5031820;28;20028;-77
2022/09/03 12:26:07;;;;;;;3.67;1.10;;;26.60;36.40;;;;;;5037489;28;20037;-77
2022/09/03 12:28:37;;;;;;;4.45;1.20;;;26.80;36.20;;;;;;5037605;28;20470;-77
2022/09/03 12:31:24;;;;;;;5.80;1.20;;;26.80;36.20;;;;;;5021021;28;20051;-77
2022/09/03 12:34:00;;;;;;;5.30;1.20;;;27.00;35.70;;;;;;5037515;28;20127;-77
2022/09/03 12:36:46;;;;;;;5.20;1.15;;;27.00;35.40;;;;;;5037808;28;20462;-77
2022/09/03 12:39:23;;;;;;;3.50;1.17;;;26.80;35.50;;;;;;5018084;28;20514;-77
2022/09/03 12:42:04;;;;;;;4.32;1.10;;;26.50;35.60;;;;;;5037369;28;20047;-77
2022/09/03 12:44:32;;;;;;;3.43;1.13;;;26.60;36.40;;;;;;5033363;28;20052;-77
2022/09/03 12:47:04;;;;;;;5.97;1.20;;;26.80;35.90;;;;;;5039327;28;20090;-77
2022/09/03 12:49:35;;;;;;;4.65;1.20;;;26.90;36.80;;;;;;5039594;28;20476;-78
2022/09/03 12:52:04;;;;;;;;;;;26.90;35.40;;;;;;5044888;28;20035;-77
2022/09/03 12:54:30;;;;;;;4.32;1.15;;;26.90;36.50;;;;;;5038567;28;19952;-77
2022/09/03 12:56:58;;;;;;;4.60;1.25;;;26.80;35.80;;;;;;5038426;28;20091;-77
2022/09/03 12:59:31;;;;;;;5.68;1.10;;;27.00;35.40;;;;;;5038657;28;20041;-77
2022/09/03 13:02:02;;;;;;;4.13;1.20;;;26.80;36.30;;;;;;5036999;28;20072;-77
2022/09/03 13:04:35;;;;;;;4.55;1.13;;;26.70;35.70;;;;;;5052448;28;20044;-79
2022/09/03 13:07:05;;;;;;;4.63;1.17;;;26.50;36.50;;;;;;5038611;28;20041;-77
2022/09/03 13:09:36;;;;;;;3.27;1.13;;;26.80;36.10;;;;;;5038487;28;20131;-78
2022/09/03 13:12:06;;;;;;;5.93;1.30;;;26.70;36.10;;;;;;5045555;28;20052;-78
2022/09/03 13:14:46;;;;;;;4.07;1.20;;;26.70;36.70;;;;;;5012245;28;20036;-77
2022/09/03 13:17:48;;;;;;;6.37;1.20;;;26.70;36.20;;;;;;5038219;28;20182;-77
2022/09/03 13:21:03;;;;;;;4.45;1.25;;;26.80;36.40;;;;;;5028059;28;20519;-78
2022/09/03 13:23:57;;;;;;;3.70;1.13;;;26.90;36.40;;;;;;5021875;28;20504;-77
2022/09/03 13:26:29;;;;;;;3.88;1.02;;;26.90;36.20;;;;;;5027186;28;20033;-77